地図

経路データ

SID SEASON NUMBER BASIN SUBBASIN NAME ISO_TIME NATURE LAT LON WMO_WIND WMO_PRES WMO_AGENCY TRACK_TYPE DIST2LAND LANDFALL IFLAG USA_AGENCY USA_ATCF_ID USA_LAT USA_LON USA_RECORD USA_STATUS USA_WIND USA_PRES USA_SSHS USA_R34_NE USA_R34_SE USA_R34_SW USA_R34_NW USA_R50_NE USA_R50_SE USA_R50_SW USA_R50_NW USA_R64_NE USA_R64_SE USA_R64_SW USA_R64_NW USA_POCI USA_ROCI USA_RMW USA_EYE TOKYO_LAT TOKYO_LON TOKYO_GRADE TOKYO_WIND TOKYO_PRES TOKYO_R50_DIR TOKYO_R50_LONG TOKYO_R50_SHORT TOKYO_R30_DIR TOKYO_R30_LONG TOKYO_R30_SHORT TOKYO_LAND CMA_LAT CMA_LON CMA_CAT CMA_WIND CMA_PRES HKO_LAT HKO_LON HKO_CAT HKO_WIND HKO_PRES NEWDELHI_LAT NEWDELHI_LON NEWDELHI_GRADE NEWDELHI_WIND NEWDELHI_PRES NEWDELHI_CI NEWDELHI_DP NEWDELHI_POCI REUNION_LAT REUNION_LON REUNION_TYPE REUNION_WIND REUNION_PRES REUNION_TNUM REUNION_CI REUNION_RMW REUNION_R34_NE REUNION_R34_SE REUNION_R34_SW REUNION_R34_NW REUNION_R50_NE REUNION_R50_SE REUNION_R50_SW REUNION_R50_NW REUNION_R64_NE REUNION_R64_SE REUNION_R64_SW REUNION_R64_NW BOM_LAT BOM_LON BOM_TYPE BOM_WIND BOM_PRES BOM_TNUM BOM_CI BOM_RMW BOM_R34_NE BOM_R34_SE BOM_R34_SW BOM_R34_NW BOM_R50_NE BOM_R50_SE BOM_R50_SW BOM_R50_NW BOM_R64_NE BOM_R64_SE BOM_R64_SW BOM_R64_NW BOM_ROCI BOM_POCI BOM_EYE BOM_POS_METHOD BOM_PRES_METHOD NADI_LAT NADI_LON NADI_CAT NADI_WIND NADI_PRES WELLINGTON_LAT WELLINGTON_LON WELLINGTON_WIND WELLINGTON_PRES DS824_LAT DS824_LON DS824_STAGE DS824_WIND DS824_PRES TD9636_LAT TD9636_LON TD9636_STAGE TD9636_WIND TD9636_PRES TD9635_LAT TD9635_LON TD9635_WIND TD9635_PRES TD9635_ROCI NEUMANN_LAT NEUMANN_LON NEUMANN_CLASS NEUMANN_WIND NEUMANN_PRES MLC_LAT MLC_LON MLC_CLASS MLC_WIND MLC_PRES USA_GUST BOM_GUST BOM_GUST_PER REUNION_GUST REUNION_GUST_PER USA_SEAHGT USA_SEARAD_NE USA_SEARAD_SE USA_SEARAD_SW USA_SEARAD_NW STORM_SPEED STORM_DIR
1990170N13260 1990 40 EP MM DOUGLAS 1990-06-19 00:00:00 TS 13.5000 -100.000 25 1011 hurdat_epa main 347 342 O_____________ hurdat_epa EP041990 13.5000 -100.000 TD 25 1011 -1 6 289
1990170N13260 1990 40 EP MM DOUGLAS 1990-06-19 03:00:00 TS 13.6026 -100.300 main 352 344 P_____________ EP041990 13.6026 -100.300 TD 25 1010 -1 6 289
1990170N13260 1990 40 EP MM DOUGLAS 1990-06-19 06:00:00 TS 13.7000 -100.600 25 1010 hurdat_epa main 349 345 O_____________ hurdat_epa EP041990 13.7000 -100.600 TD 25 1010 -1 6 288
1990170N13260 1990 40 EP MM DOUGLAS 1990-06-19 09:00:00 TS 13.7925 -100.900 main 349 347 P_____________ EP041990 13.7925 -100.900 TD 27 1009 -1 6 289
1990170N13260 1990 40 EP MM DOUGLAS 1990-06-19 12:00:00 TS 13.9000 -101.200 30 1008 hurdat_epa main 352 347 O_____________ hurdat_epa EP041990 13.9000 -101.200 TD 30 1008 -1 6 292
1990170N13260 1990 40 EP MM DOUGLAS 1990-06-19 15:00:00 TS 14.0350 -101.508 main 358 349 P_____________ EP041990 14.0350 -101.508 TD 32 1006 -1 7 297
1990170N13260 1990 40 EP MM DOUGLAS 1990-06-19 18:00:00 TS 14.2000 -101.800 35 1005 hurdat_epa main 352 338 O_____________ hurdat_epa EP041990 14.2000 -101.800 TS 35 1005 0 7 303
1990170N13260 1990 40 EP MM DOUGLAS 1990-06-19 21:00:00 TS 14.3925 -102.065 main 341 328 P_____________ EP041990 14.3925 -102.065 TS 37 1004 0 6 310
1990170N13260 1990 40 EP MM DOUGLAS 1990-06-20 00:00:00 TS 14.6000 -102.300 40 1003 hurdat_epa main 328 317 O_____________ hurdat_epa EP041990 14.6000 -102.300 TS 40 1003 0 6 313
1990170N13260 1990 40 EP MM DOUGLAS 1990-06-20 03:00:00 TS 14.7925 -102.508 main 317 309 P_____________ EP041990 14.7925 -102.508 TS 42 1001 0 6 316
1990170N13260 1990 40 EP MM DOUGLAS 1990-06-20 06:00:00 TS 15.0000 -102.700 45 1000 hurdat_epa main 309 296 O_____________ hurdat_epa EP041990 15.0000 -102.700 TS 45 1000 0 6 319
1990170N13260 1990 40 EP MM DOUGLAS 1990-06-20 09:00:00 TS 15.2350 -102.908 main 303 281 P_____________ EP041990 15.2350 -102.908 TS 47 999 0 6 322
1990170N13260 1990 40 EP MM DOUGLAS 1990-06-20 12:00:00 TS 15.5000 -103.100 50 998 hurdat_epa main 281 253 O_____________ hurdat_epa EP041990 15.5000 -103.100 TS 50 998 0 7 329
1990170N13260 1990 40 EP MM DOUGLAS 1990-06-20 15:00:00 TS 15.7925 -103.258 main 257 229 P_____________ EP041990 15.7925 -103.258 TS 50 996 0 7 334
1990170N13260 1990 40 EP MM DOUGLAS 1990-06-20 18:00:00 TS 16.1000 -103.400 50 995 hurdat_epa main 229 200 O_____________ hurdat_epa EP041990 16.1000 -103.400 TS 50 995 0 7 335
1990170N13260 1990 40 EP MM DOUGLAS 1990-06-20 21:00:00 TS 16.4075 -103.550 main 204 176 P_____________ EP041990 16.4075 -103.550 TS 52 994 0 7 334
1990170N13260 1990 40 EP MM DOUGLAS 1990-06-21 00:00:00 TS 16.7000 -103.700 55 994 hurdat_epa main 176 158 O_____________ hurdat_epa EP041990 16.7000 -103.700 TS 55 994 0 6 332
1990170N13260 1990 40 EP MM DOUGLAS 1990-06-21 03:00:00 TS 16.9500 -103.858 main 151 133 P_____________ EP041990 16.9500 -103.858 TS 55 993 0 6 330
1990170N13260 1990 40 EP MM DOUGLAS 1990-06-21 06:00:00 TS 17.2000 -104.000 55 993 hurdat_epa main 133 109 O_____________ hurdat_epa EP041990 17.2000 -104.000 TS 55 993 0 6 337
1990170N13260 1990 40 EP MM DOUGLAS 1990-06-21 09:00:00 TS 17.5000 -104.100 main 109 92 P_____________ EP041990 17.5000 -104.100 TS 55 992 0 6 342
1990170N13260 1990 40 EP MM DOUGLAS 1990-06-21 12:00:00 TS 17.8000 -104.200 55 992 hurdat_epa main 92 86 O_____________ hurdat_epa EP041990 17.8000 -104.200 TS 55 992 0 6 338
1990170N13260 1990 40 EP MM DOUGLAS 1990-06-21 15:00:00 TS 18.0575 -104.335 main 86 81 P_____________ EP041990 18.0575 -104.335 TS 55 992 0 6 330
1990170N13260 1990 40 EP MM DOUGLAS 1990-06-21 18:00:00 TS 18.3000 -104.500 55 992 hurdat_epa main 81 64 O_____________ hurdat_epa EP041990 18.3000 -104.500 TS 55 992 0 6 325
1990170N13260 1990 40 EP MM DOUGLAS 1990-06-21 21:00:00 TS 18.5500 -104.693 main 61 45 P_____________ EP041990 18.5500 -104.693 TS 55 992 0 6 323
1990170N13260 1990 40 EP MM DOUGLAS 1990-06-22 00:00:00 TS 18.8000 -104.900 55 993 hurdat_epa main 45 30 O_____________ hurdat_epa EP041990 18.8000 -104.900 TS 55 993 0 6 323
1990170N13260 1990 40 EP MM DOUGLAS 1990-06-22 03:00:00 TS 19.0575 -105.100 main 30 30 P_____________ EP041990 19.0575 -105.100 TS 52 994 0 6 323
1990170N13260 1990 40 EP MM DOUGLAS 1990-06-22 06:00:00 TS 19.3000 -105.300 50 995 hurdat_epa main 33 24 O_____________ hurdat_epa EP041990 19.3000 -105.300 TS 50 995 0 6 321
1990170N13260 1990 40 EP MM DOUGLAS 1990-06-22 09:00:00 TS 19.5074 -105.493 main 30 23 P_____________ EP041990 19.5074 -105.493 TS 47 996 0 6 317
1990170N13260 1990 40 EP MM DOUGLAS 1990-06-22 12:00:00 TS 19.7000 -105.700 45 997 hurdat_epa main 38 38 O_____________ hurdat_epa EP041990 19.7000 -105.700 TS 45 997 0 6 313
1990170N13260 1990 40 EP MM DOUGLAS 1990-06-22 15:00:00 TS 19.9075 -105.942 main 43 43 P_____________ EP041990 19.9075 -105.942 TS 42 998 0 6 310
1990170N13260 1990 40 EP MM DOUGLAS 1990-06-22 18:00:00 TS 20.1000 -106.200 40 1000 hurdat_epa main 62 62 O_____________ hurdat_epa EP041990 20.1000 -106.200 TS 40 1000 0 6 307
1990170N13260 1990 40 EP MM DOUGLAS 1990-06-22 21:00:00 TS 20.2649 -106.443 main 73 73 P_____________ EP041990 20.2649 -106.443 TS 37 1001 0 6 303
1990170N13260 1990 40 EP MM DOUGLAS 1990-06-23 00:00:00 TS 20.4000 -106.700 35 1002 hurdat_epa main 104 104 O_____________ hurdat_epa EP041990 20.4000 -106.700 TS 35 1002 0 6 295
1990170N13260 1990 40 EP MM DOUGLAS 1990-06-23 03:00:00 TS 20.5074 -106.985 main 135 135 P_____________ EP041990 20.5074 -106.985 TS 35 1003 0 6 290
1990170N13260 1990 40 EP MM DOUGLAS 1990-06-23 06:00:00 TS 20.6000 -107.300 35 1005 hurdat_epa main 168 168 O_____________ hurdat_epa EP041990 20.6000 -107.300 TS 35 1005 0 6 288
1990170N13260 1990 40 EP MM DOUGLAS 1990-06-23 09:00:00 TS 20.7075 -107.642 main 200 200 P_____________ EP041990 20.7075 -107.642 TS 32 1006 -1 7 287
1990170N13260 1990 40 EP MM DOUGLAS 1990-06-23 12:00:00 TS 20.8000 -108.000 30 1007 hurdat_epa main 243 243 O_____________ hurdat_epa EP041990 20.8000 -108.000 TD 30 1007 -1 7 283
1990170N13260 1990 40 EP MM DOUGLAS 1990-06-23 15:00:00 TS 20.8601 -108.353 main 266 250 P_____________ EP041990 20.8601 -108.353 TD 30 1008 -1 7 279
1990170N13260 1990 40 EP MM DOUGLAS 1990-06-23 18:00:00 TS 20.9000 -108.700 30 1009 hurdat_epa main 250 O_____________ hurdat_epa EP041990 20.9000 -108.700 TD 30 1009 -1 7 277

IBTrACS Databaseについて

本データベースは、米国NOAAが公開する1842年以降の世界の熱帯低気圧のベストトラックデータアーカイブInternational Best Track Archive for Climate Stewardship (IBTrACS)を、ウェブで閲覧しやすい形式に変換したものです。

最終更新日:2021-11-26